Time;durP1;ratioP1;P1;durP2;ratioP2;P2;SDS_P1;SDS_P2;PMS_P1;PMS_P2;Temp;Humidity;BMP_temperature;BMP_pressure;BME280_temperature;BME280_humidity;BME280_pressure;Samples;Min_cycle;Max_cycle;Signal;HPM_P1;HPM_P2
2022/09/11 00:00:48;;;;;;;1.83;1.37;;;15.10;99.90;;;;;;5032320;28;20215;-48
2022/09/11 00:03:18;;;;;;;1.27;1.27;;;15.10;99.90;;;;;;5034064;28;20614;-47
2022/09/11 00:05:47;;;;;;;1.77;1.63;;;15.00;99.90;;;;;;5033421;28;20250;-48
2022/09/11 00:08:18;;;;;;;1.00;1.00;;;15.00;99.90;;;;;;5032944;28;20703;-47
2022/09/11 00:10:47;;;;;;;0.87;0.87;;;15.00;99.90;;;;;;5033379;28;20202;-48
2022/09/11 00:13:20;;;;;;;1.30;1.00;;;15.00;99.90;;;;;;5033685;28;20576;-48
2022/09/11 00:15:48;;;;;;;0.90;0.90;;;15.00;99.90;;;;;;5034074;28;20198;-50
2022/09/11 00:18:20;;;;;;;1.60;1.13;;;15.00;99.90;;;;;;5024779;28;20222;-47
2022/09/11 00:20:50;;;;;;;2.97;1.93;;;15.00;99.90;;;;;;5031898;28;20199;-50
2022/09/11 00:23:22;;;;;;;3.23;1.20;;;15.00;99.90;;;;;;5033709;28;20202;-48
2022/09/11 00:25:49;;;;;;;1.43;1.43;;;14.90;99.90;;;;;;5033729;28;20206;-48
2022/09/11 00:28:21;;;;;;;1.03;1.00;;;14.90;99.90;;;;;;5024515;28;20245;-48
2022/09/11 00:30:58;;;;;;;1.70;1.60;;;14.90;99.90;;;;;;5033013;28;20221;-50
2022/09/11 00:33:26;;;;;;;3.10;1.20;;;14.90;99.90;;;;;;5033450;28;20213;-50
2022/09/11 00:35:57;;;;;;;1.27;1.27;;;14.90;99.90;;;;;;5033422;28;20217;-48
2022/09/11 00:38:25;;;;;;;3.13;1.53;;;14.90;99.90;;;;;;5032521;28;20223;-47
2022/09/11 00:40:53;;;;;;;2.10;1.80;;;14.90;99.90;;;;;;5032111;28;20202;-46
2022/09/11 00:43:23;;;;;;;3.20;1.13;;;14.90;99.90;;;;;;5033036;28;20700;-48
2022/09/11 00:45:55;;;;;;;1.77;0.87;;;14.80;99.90;;;;;;5033844;28;20221;-50
2022/09/11 00:48:28;;;;;;;0.90;0.70;;;14.90;99.90;;;;;;5025881;28;20659;-49
2022/09/11 00:51:02;;;;;;;1.23;0.83;;;14.90;99.90;;;;;;5032287;28;20203;-48
2022/09/11 00:53:33;;;;;;;0.87;0.87;;;14.80;99.90;;;;;;5032691;28;20269;-48
2022/09/11 00:56:05;;;;;;;3.50;1.03;;;14.80;99.90;;;;;;5033024;28;20206;-48
2022/09/11 00:58:37;;;;;;;1.00;1.00;;;14.80;99.90;;;;;;5028805;28;20233;-48
2022/09/11 01:01:05;;;;;;;1.73;1.27;;;14.80;99.90;;;;;;5031909;28;20245;-47
2022/09/11 01:03:32;;;;;;;1.47;1.20;;;14.80;99.90;;;;;;5028753;28;20622;-47
2022/09/11 01:06:00;;;;;;;2.30;1.37;;;14.80;99.90;;;;;;5033187;28;20631;-47
2022/09/11 01:08:27;;;;;;;1.50;1.20;;;14.80;99.90;;;;;;5031445;28;20709;-48
2022/09/11 01:11:04;;;;;;;2.63;0.87;;;14.70;99.90;;;;;;5032922;28;20199;-49
2022/09/11 01:13:41;;;;;;;1.63;0.70;;;14.70;99.90;;;;;;5032629;28;20264;-48
2022/09/11 01:23:21;;;;;;;1.97;0.90;;;14.80;99.90;;;;;;5011660;28;20177;-47
2022/09/11 01:26:01;;;;;;;3.43;0.97;;;14.80;99.90;;;;;;5031136;28;20626;-49
2022/09/11 01:28:34;;;;;;;2.80;0.77;;;14.80;99.90;;;;;;5032619;28;20222;-48
2022/09/11 01:31:09;;;;;;;0.80;0.80;;;14.80;99.90;;;;;;5032511;28;20739;-49
2022/09/11 01:33:43;;;;;;;2.40;0.77;;;14.80;99.90;;;;;;5031666;28;20267;-49
2022/09/11 01:36:17;;;;;;;2.57;0.80;;;14.80;99.90;;;;;;5031749;28;20208;-49
2022/09/11 01:38:50;;;;;;;1.70;1.13;;;14.80;99.90;;;;;;5031460;28;20676;-49
2022/09/11 01:41:26;;;;;;;2.10;0.90;;;14.80;99.90;;;;;;5032209;28;20207;-49
2022/09/11 01:43:58;;;;;;;0.87;0.60;;;14.80;99.90;;;;;;5029591;28;20221;-48
2022/09/11 01:46:27;;;;;;;2.20;0.80;;;14.80;99.90;;;;;;5019942;28;20203;-50
2022/09/11 01:48:59;;;;;;;1.57;0.50;;;14.80;99.90;;;;;;5030185;28;20194;-48
2022/09/11 01:51:31;;;;;;;0.90;0.37;;;14.80;99.90;;;;;;5026444;28;20209;-48
2022/09/11 01:54:00;;;;;;;0.50;0.50;;;14.80;99.90;;;;;;5030874;28;20595;-48
2022/09/11 01:56:33;;;;;;;1.37;0.50;;;14.80;99.90;;;;;;5031727;28;20281;-48
2022/09/11 01:59:04;;;;;;;0.50;0.50;;;14.70;99.90;;;;;;5032155;28;20210;-48
2022/09/11 02:01:34;;;;;;;1.20;0.83;;;14.70;99.90;;;;;;5029981;28;20683;-48
2022/09/11 02:04:06;;;;;;;0.60;0.60;;;14.70;99.90;;;;;;5027157;28;20277;-49
2022/09/11 02:06:37;;;;;;;1.70;0.43;;;14.70;99.90;;;;;;5027772;28;20272;-48
2022/09/11 02:09:08;;;;;;;0.50;0.40;;;14.80;99.90;;;;;;5026737;28;20657;-49
2022/09/11 02:11:39;;;;;;;0.93;0.43;;;14.80;99.90;;;;;;5028333;28;20199;-48
2022/09/11 02:14:14;;;;;;;1.33;0.50;;;14.90;99.90;;;;;;5029898;28;20290;-48
2022/09/11 02:16:48;;;;;;;0.83;0.60;;;14.80;99.90;;;;;;5031587;28;20221;-49
2022/09/11 02:19:17;;;;;;;1.07;0.73;;;14.80;99.90;;;;;;5031514;28;20218;-48
2022/09/11 02:21:46;;;;;;;0.77;0.70;;;14.80;99.90;;;;;;5031899;28;20260;-48
2022/09/11 02:24:14;;;;;;;0.80;0.80;;;14.70;99.90;;;;;;5030337;28;20210;-48
2022/09/11 02:26:45;;;;;;;2.60;0.83;;;14.70;99.90;;;;;;5030712;28;20605;-47
2022/09/11 02:29:14;;;;;;;1.43;0.90;;;14.70;99.90;;;;;;5031371;28;20282;-47
2022/09/11 02:31:42;;;;;;;1.70;0.87;;;14.70;99.90;;;;;;5031181;28;20202;-48
2022/09/11 02:34:11;;;;;;;2.30;0.70;;;14.70;99.90;;;;;;5028862;28;20297;-47
2022/09/11 02:36:56;;;;;;;2.63;1.10;;;14.70;99.90;;;;;;5026954;28;20277;-47
2022/09/11 02:39:40;;;;;;;1.53;0.70;;;14.70;99.90;;;;;;5030884;28;20233;-48
2022/09/11 02:42:24;;;;;;;0.97;0.90;;;14.70;99.90;;;;;;5031531;28;20202;-47
2022/09/11 02:45:02;;;;;;;2.00;1.20;;;14.70;99.90;;;;;;5031528;28;20210;-48
2022/09/11 02:47:41;;;;;;;1.07;1.00;;;14.70;99.90;;;;;;5019053;28;20265;-48
2022/09/11 02:50:16;;;;;;;1.13;1.13;;;14.70;99.90;;;;;;5022655;28;20252;-48
2022/09/11 02:52:49;;;;;;;1.40;1.20;;;14.70;99.90;;;;;;5029092;28;20204;-48
2022/09/11 02:55:22;;;;;;;3.27;1.30;;;14.80;99.90;;;;;;5031265;28;20297;-48
2022/09/11 02:57:57;;;;;;;1.57;0.97;;;14.80;99.90;;;;;;5022710;28;20285;-48
2022/09/11 03:00:25;;;;;;;3.10;1.20;;;14.80;99.90;;;;;;5031195;28;20249;-48
2022/09/11 03:02:53;;;;;;;1.20;1.20;;;14.70;99.90;;;;;;5028258;28;20217;-48
2022/09/11 03:05:22;;;;;;;1.47;1.23;;;14.70;99.90;;;;;;5031210;28;20222;-48
2022/09/11 03:07:49;;;;;;;0.93;0.93;;;14.80;99.90;;;;;;5022283;28;20289;-48
2022/09/11 03:10:16;;;;;;;1.00;1.00;;;14.80;99.90;;;;;;5031214;28;20230;-47
2022/09/11 03:12:43;;;;;;;1.87;0.80;;;14.80;99.90;;;;;;5029608;28;20202;-48
2022/09/11 03:15:11;;;;;;;0.97;0.83;;;14.90;99.90;;;;;;5024079;28;20687;-47
2022/09/11 03:17:40;;;;;;;0.93;0.93;;;14.80;99.90;;;;;;5029469;28;20272;-48
2022/09/11 03:20:08;;;;;;;0.80;0.80;;;14.80;99.90;;;;;;5031408;28;20619;-48
2022/09/11 03:22:35;;;;;;;1.80;0.70;;;14.70;99.90;;;;;;5031472;28;20210;-48
2022/09/11 03:25:02;;;;;;;1.33;0.70;;;14.70;99.90;;;;;;5030375;28;20206;-47
2022/09/11 03:27:29;;;;;;;0.60;0.60;;;14.70;99.90;;;;;;5022433;28;20227;-47
2022/09/11 03:29:57;;;;;;;3.70;0.90;;;14.70;99.90;;;;;;5030676;28;20210;-48
2022/09/11 03:32:24;;;;;;;1.33;0.70;;;14.60;99.90;;;;;;5029734;28;20294;-48
2022/09/11 03:34:53;;;;;;;1.07;1.07;;;14.60;99.90;;;;;;5030709;28;20202;-48
2022/09/11 03:37:20;;;;;;;0.93;0.83;;;14.70;99.90;;;;;;5024430;28;20235;-48
2022/09/11 03:39:48;;;;;;;2.13;1.07;;;14.70;99.90;;;;;;5029737;28;20222;-48
2022/09/11 03:42:15;;;;;;;0.60;0.60;;;14.70;99.90;;;;;;5031027;28;20195;-48
2022/09/11 03:44:44;;;;;;;4.90;1.03;;;14.70;99.90;;;;;;5030981;28;20288;-48
2022/09/11 03:47:11;;;;;;;1.90;0.50;;;14.70;99.90;;;;;;5031734;28;20638;-47
2022/09/11 03:49:38;;;;;;;1.03;0.60;;;14.70;99.90;;;;;;5029787;28;20229;-48
2022/09/11 03:52:07;;;;;;;0.83;0.80;;;14.80;99.90;;;;;;5033638;28;20195;-48
2022/09/11 03:54:34;;;;;;;1.57;0.83;;;14.70;99.90;;;;;;5034377;28;20257;-49
2022/09/11 03:57:01;;;;;;;0.80;0.80;;;14.70;99.90;;;;;;5034477;28;20223;-48
2022/09/11 03:59:28;;;;;;;0.97;0.83;;;14.80;99.90;;;;;;5038787;28;20245;-48
2022/09/11 04:01:55;;;;;;;0.97;0.70;;;14.70;99.90;;;;;;5034338;28;20257;-48
2022/09/11 04:21:15;;;;;;;1.57;0.50;;;14.60;99.90;;;;;;5034000;28;20266;-49
2022/09/11 04:23:44;;;;;;;0.60;0.60;;;14.60;99.90;;;;;;5024331;28;20202;-50
2022/09/11 04:26:15;;;;;;;0.77;0.77;;;14.60;99.90;;;;;;5033884;28;20217;-50
2022/09/11 04:28:43;;;;;;;1.00;0.77;;;14.60;99.90;;;;;;5033847;28;20734;-47
2022/09/11 04:31:11;;;;;;;0.50;0.50;;;14.60;99.90;;;;;;5033618;28;20214;-48
2022/09/11 04:33:38;;;;;;;1.50;1.40;;;14.70;99.90;;;;;;5033601;28;20820;-49
2022/09/11 04:36:06;;;;;;;2.00;0.70;;;14.70;99.90;;;;;;5031175;28;20268;-49
2022/09/11 04:38:35;;;;;;;0.93;0.70;;;14.60;99.90;;;;;;5033403;28;20219;-49
2022/09/11 04:41:02;;;;;;;1.17;0.60;;;14.60;99.90;;;;;;5016218;28;20219;-49
2022/09/11 04:43:30;;;;;;;1.37;1.10;;;14.60;99.90;;;;;;5033361;28;20248;-49
2022/09/11 04:46:01;;;;;;;1.50;0.87;;;14.60;99.90;;;;;;5031628;28;20206;-49
2022/09/11 04:48:28;;;;;;;2.77;1.90;;;14.60;99.90;;;;;;5033572;28;20290;-50
2022/09/11 04:51:02;;;;;;;3.13;2.93;;;14.60;99.90;;;;;;5033519;28;20208;-50
2022/09/11 04:53:30;;;;;;;2.83;2.00;;;14.60;99.90;;;;;;5023460;28;20252;-49
2022/09/11 04:56:07;;;;;;;1.60;1.23;;;14.60;99.90;;;;;;5030710;28;20285;-49
2022/09/11 04:58:35;;;;;;;1.23;1.10;;;14.60;99.90;;;;;;5033242;28;20219;-46
2022/09/11 05:01:07;;;;;;;2.30;1.20;;;14.60;99.90;;;;;;5013393;28;20233;-49
2022/09/11 05:03:34;;;;;;;3.90;1.10;;;14.60;99.90;;;;;;5023829;28;20206;-49
2022/09/11 05:06:05;;;;;;;0.93;0.93;;;14.60;99.90;;;;;;5027290;28;20194;-49
2022/09/11 05:08:33;;;;;;;0.97;0.50;;;14.60;99.90;;;;;;5032706;28;20226;-49
2022/09/11 05:11:00;;;;;;;3.43;0.77;;;14.60;99.90;;;;;;5032832;28;20197;-50
2022/09/11 05:13:30;;;;;;;1.33;0.70;;;14.60;99.90;;;;;;5023414;28;20202;-48
2022/09/11 05:16:01;;;;;;;0.53;0.50;;;14.60;99.90;;;;;;5030643;28;20260;-49
2022/09/11 05:18:28;;;;;;;0.60;0.50;;;14.60;99.90;;;;;;5032714;28;20237;-49
2022/09/11 05:21:00;;;;;;;0.53;0.47;;;14.60;99.90;;;;;;5032735;28;20268;-48
2022/09/11 05:23:28;;;;;;;1.60;0.40;;;14.60;99.90;;;;;;5023572;28;20282;-49
2022/09/11 05:25:58;;;;;;;1.57;0.70;;;14.60;99.90;;;;;;5023638;28;20206;-49
2022/09/11 05:28:26;;;;;;;1.83;0.83;;;14.70;99.90;;;;;;5032673;28;20297;-50
2022/09/11 05:30:54;;;;;;;0.50;0.50;;;14.70;99.90;;;;;;5023537;28;20286;-48
2022/09/11 05:33:23;;;;;;;1.33;0.60;;;14.70;99.90;;;;;;5032234;28;20202;-49
2022/09/11 05:35:50;;;;;;;0.57;0.40;;;14.70;99.90;;;;;;5022911;28;20290;-50
2022/09/11 05:38:21;;;;;;;2.17;0.70;;;14.70;99.90;;;;;;5032560;28;20228;-49
2022/09/11 05:40:49;;;;;;;0.63;0.50;;;14.70;99.90;;;;;;5022838;28;20763;-49
2022/09/11 05:43:18;;;;;;;3.57;1.60;;;14.80;99.90;;;;;;5032253;28;20244;-49
2022/09/11 05:45:53;;;;;;;1.90;0.50;;;14.80;99.90;;;;;;5023380;28;20211;-49
2022/09/11 05:48:22;;;;;;;0.57;0.57;;;14.80;99.90;;;;;;5032214;28;20234;-49
2022/09/11 05:50:52;;;;;;;0.50;0.50;;;14.80;99.90;;;;;;5031401;28;20277;-49
2022/09/11 05:53:23;;;;;;;1.03;0.50;;;14.80;99.90;;;;;;5031961;28;20226;-49
2022/09/11 05:55:51;;;;;;;1.80;0.60;;;14.90;99.90;;;;;;5023227;28;20203;-49
2022/09/11 05:58:22;;;;;;;4.53;0.97;;;14.90;99.90;;;;;;5031938;28;20276;-49
2022/09/11 06:00:49;;;;;;;0.87;0.50;;;14.90;99.90;;;;;;5028386;28;20261;-51
2022/09/11 06:03:17;;;;;;;1.27;0.87;;;15.00;99.90;;;;;;5032023;28;20256;-49
2022/09/11 06:05:46;;;;;;;0.60;0.60;;;15.00;99.90;;;;;;5026093;28;20273;-49
2022/09/11 06:08:13;;;;;;;1.53;0.70;;;15.00;99.90;;;;;;5030854;28;20222;-50
2022/09/11 06:10:46;;;;;;;0.40;0.40;;;14.90;99.90;;;;;;5030558;28;20194;-49
2022/09/11 06:13:16;;;;;;;1.27;0.50;;;15.00;99.90;;;;;;5032465;28;20305;-50
2022/09/11 06:15:45;;;;;;;0.77;0.67;;;15.00;99.90;;;;;;5033716;28;20202;-50
2022/09/11 06:18:13;;;;;;;0.77;0.77;;;15.10;99.90;;;;;;5031926;28;20224;-49
2022/09/11 06:20:40;;;;;;;0.70;0.70;;;15.00;99.90;;;;;;5022275;28;20219;-50
2022/09/11 06:23:10;;;;;;;0.70;0.70;;;15.00;99.90;;;;;;5031577;28;20213;-49
2022/09/11 06:25:38;;;;;;;2.30;0.67;;;15.00;99.90;;;;;;5022713;28;20207;-49
2022/09/11 06:28:05;;;;;;;0.70;0.70;;;15.00;99.90;;;;;;5033755;28;20254;-49
2022/09/11 06:30:33;;;;;;;2.00;0.80;;;14.90;99.90;;;;;;5030385;28;20713;-50
2022/09/11 06:33:00;;;;;;;0.70;0.60;;;14.90;99.90;;;;;;5030007;28;20292;-49
2022/09/11 06:35:27;;;;;;;0.70;0.70;;;14.90;99.90;;;;;;5035273;28;20260;-50
2022/09/11 06:37:55;;;;;;;2.80;1.10;;;15.00;99.90;;;;;;5028036;28;20632;-50
2022/09/11 06:40:23;;;;;;;2.10;0.70;;;15.00;99.90;;;;;;5030964;28;20210;-50
2022/09/11 06:42:50;;;;;;;3.00;0.80;;;15.10;99.90;;;;;;5031722;28;20669;-48
2022/09/11 06:45:17;;;;;;;0.90;0.80;;;15.10;99.90;;;;;;5023496;28;20206;-49
2022/09/11 06:47:46;;;;;;;2.83;1.07;;;15.00;99.90;;;;;;5031974;28;20276;-50
2022/09/11 06:50:13;;;;;;;2.03;1.07;;;15.10;99.90;;;;;;5034793;28;20198;-49
2022/09/11 06:52:41;;;;;;;1.00;0.70;;;15.10;99.90;;;;;;5039412;28;20202;-49
2022/09/11 06:55:12;;;;;;;1.83;1.03;;;15.10;99.90;;;;;;5026480;28;20199;-48
2022/09/11 06:57:41;;;;;;;2.30;1.20;;;15.10;99.90;;;;;;5025265;28;20264;-50
2022/09/11 07:00:09;;;;;;;1.27;1.17;;;15.10;99.90;;;;;;5031496;28;20195;-49
2022/09/11 07:02:36;;;;;;;3.00;0.80;;;15.10;99.90;;;;;;5031400;28;20222;-49
2022/09/11 07:05:04;;;;;;;0.77;0.77;;;15.20;99.90;;;;;;5027870;28;20207;-49
2022/09/11 07:07:32;;;;;;;2.93;1.00;;;15.30;99.90;;;;;;5040373;28;20636;-49
2022/09/11 07:10:03;;;;;;;0.93;0.87;;;15.30;99.90;;;;;;5030136;28;20286;-49
2022/09/11 07:12:30;;;;;;;1.43;1.00;;;15.40;99.90;;;;;;5018133;28;20199;-49
2022/09/11 07:14:59;;;;;;;1.00;1.00;;;15.60;99.90;;;;;;5027236;28;20656;-50
2022/09/11 07:17:26;;;;;;;1.00;1.00;;;15.70;99.90;;;;;;5025538;28;20303;-47
2022/09/11 07:19:53;;;;;;;2.67;0.63;;;15.80;99.90;;;;;;5033282;28;20334;-50
2022/09/11 07:22:20;;;;;;;1.33;1.23;;;16.00;99.90;;;;;;5028657;28;20637;-50
2022/09/11 07:24:47;;;;;;;1.97;0.80;;;16.10;99.90;;;;;;5025823;28;21096;-49
2022/09/11 07:27:15;;;;;;;1.67;0.90;;;16.10;99.90;;;;;;5033298;28;20230;-49
2022/09/11 07:29:43;;;;;;;1.10;0.73;;;16.00;99.90;;;;;;5034231;28;20285;-49
2022/09/11 07:32:11;;;;;;;2.77;0.83;;;16.10;99.90;;;;;;5025216;28;20744;-47
2022/09/11 07:34:38;;;;;;;1.90;0.90;;;16.00;99.90;;;;;;5024885;28;20202;-47
2022/09/11 07:37:05;;;;;;;1.07;0.87;;;16.00;99.90;;;;;;5033045;28;20280;-48
2022/09/11 07:39:32;;;;;;;0.70;0.70;;;16.10;99.90;;;;;;5034012;28;20265;-49
2022/09/11 07:41:59;;;;;;;0.67;0.67;;;16.10;99.90;;;;;;5036437;28;20218;-47
2022/09/11 07:44:26;;;;;;;0.80;0.80;;;16.20;99.90;;;;;;5034403;28;20762;-47
2022/09/11 07:46:53;;;;;;;0.80;0.80;;;16.40;99.90;;;;;;5025863;28;20703;-47
2022/09/11 07:49:21;;;;;;;0.80;0.53;;;16.50;99.90;;;;;;5034503;28;20233;-47
2022/09/11 07:51:48;;;;;;;0.50;0.50;;;16.70;99.90;;;;;;5034758;28;20256;-50
2022/09/11 07:54:15;;;;;;;0.97;0.90;;;16.80;99.90;;;;;;5034513;28;20252;-49
2022/09/11 07:56:42;;;;;;;4.73;0.80;;;17.00;99.90;;;;;;5024781;28;20229;-49
2022/09/11 07:59:09;;;;;;;1.10;0.70;;;17.10;99.90;;;;;;5034135;28;20673;-50
2022/09/11 08:01:36;;;;;;;0.50;0.50;;;17.20;99.90;;;;;;5023870;28;20708;-49
2022/09/11 08:04:05;;;;;;;1.37;0.60;;;17.30;99.90;;;;;;5034113;28;20754;-50
2022/09/11 08:06:35;;;;;;;0.93;0.83;;;17.30;99.90;;;;;;5026047;28;20254;-49
2022/09/11 08:09:05;;;;;;;0.70;0.60;;;17.30;99.90;;;;;;5033604;28;20194;-49
2022/09/11 08:11:37;;;;;;;1.27;0.80;;;17.30;99.90;;;;;;5034120;28;20191;-49
2022/09/11 08:14:06;;;;;;;0.60;0.60;;;17.30;99.90;;;;;;5034329;28;20561;-49
2022/09/11 08:16:34;;;;;;;2.00;0.87;;;17.30;99.90;;;;;;5028432;28;20201;-49
2022/09/11 08:19:02;;;;;;;0.80;0.80;;;17.30;99.90;;;;;;5034148;28;20197;-50
2022/09/11 08:21:29;;;;;;;0.50;0.50;;;17.00;99.90;;;;;;5033974;28;20218;-49
2022/09/11 08:23:57;;;;;;;2.83;0.40;;;17.00;99.90;;;;;;5033666;28;20252;-49
2022/09/11 08:26:27;;;;;;;0.60;0.60;;;17.00;99.90;;;;;;5027836;28;20206;-49
2022/09/11 08:28:55;;;;;;;1.27;0.70;;;17.10;99.90;;;;;;5029052;28;20258;-48
2022/09/11 08:31:25;;;;;;;0.50;0.50;;;17.20;99.90;;;;;;5024492;28;20195;-47
2022/09/11 08:33:53;;;;;;;1.70;0.67;;;17.20;99.90;;;;;;5026997;28;20226;-50
2022/09/11 08:36:20;;;;;;;0.70;0.70;;;17.30;99.90;;;;;;5026345;28;20246;-51
2022/09/11 08:38:48;;;;;;;2.10;0.67;;;17.30;99.90;;;;;;5024358;28;20238;-47
2022/09/11 08:41:31;;;;;;;0.50;0.50;;;17.40;99.90;;;;;;5031048;28;20230;-49
2022/09/11 08:44:01;;;;;;;0.63;0.63;;;17.60;99.90;;;;;;5033526;28;20202;-49
2022/09/11 08:46:33;;;;;;;2.43;0.60;;;17.80;99.90;;;;;;5033873;28;20213;-49
2022/09/11 08:49:10;;;;;;;1.10;0.60;;;17.90;99.90;;;;;;5031146;28;21658;-50
2022/09/11 08:51:38;;;;;;;2.27;0.43;;;18.00;99.90;;;;;;5033347;28;20721;-49
2022/09/11 08:54:05;;;;;;;1.13;0.60;;;18.00;99.90;;;;;;5024459;28;20198;-47
2022/09/11 08:56:35;;;;;;;0.43;0.43;;;18.00;99.90;;;;;;5033267;28;20616;-49
2022/09/11 08:59:18;;;;;;;0.30;0.23;;;17.70;99.90;;;;;;5033277;28;20298;-49
2022/09/11 09:01:54;;;;;;;0.30;0.30;;;17.60;99.90;;;;;;5033042;28;20826;-49
2022/09/11 09:04:34;;;;;;;0.50;0.50;;;17.60;99.90;;;;;;5028651;28;20552;-49
2022/09/11 09:07:08;;;;;;;0.50;0.50;;;17.40;99.90;;;;;;5033213;28;20230;-50
2022/09/11 09:09:42;;;;;;;3.03;0.40;;;17.40;99.90;;;;;;5032354;28;20228;-49
2022/09/11 09:12:20;;;;;;;0.97;0.50;;;17.60;99.90;;;;;;5033269;28;20260;-50
2022/09/11 09:15:21;;;;;;;1.37;0.50;;;18.00;99.90;;;;;;5030698;28;20252;-49
2022/09/11 09:17:54;;;;;;;0.83;0.53;;;18.40;99.90;;;;;;5030366;28;20765;-50
2022/09/11 09:20:26;;;;;;;0.67;0.30;;;18.90;99.90;;;;;;5030688;28;20206;-50
2022/09/11 09:22:57;;;;;;;0.50;0.40;;;19.30;99.90;;;;;;5032730;28;20229;-49
2022/09/11 09:25:26;;;;;;;0.40;0.40;;;19.40;99.90;;;;;;5032963;28;20676;-49
2022/09/11 09:27:59;;;;;;;1.50;0.67;;;19.40;99.90;;;;;;5032855;28;20222;-49
2022/09/11 09:30:30;;;;;;;0.57;0.37;;;19.20;99.90;;;;;;5031447;28;20301;-49
2022/09/11 09:33:03;;;;;;;1.70;0.60;;;18.90;99.90;;;;;;5032910;28;20199;-50
2022/09/11 09:35:40;;;;;;;0.97;0.50;;;18.40;99.90;;;;;;5032698;28;20208;-50
2022/09/11 09:38:12;;;;;;;0.50;0.50;;;18.20;99.90;;;;;;5032621;28;20635;-48
2022/09/11 09:40:48;;;;;;;0.47;0.40;;;18.10;99.90;;;;;;5029910;28;20210;-49
2022/09/11 09:43:32;;;;;;;1.27;0.77;;;18.00;99.90;;;;;;5031327;28;20268;-49
2022/09/11 09:46:09;;;;;;;0.63;0.63;;;17.90;99.90;;;;;;5032744;28;20216;-49
2022/09/11 09:48:39;;;;;;;1.10;0.53;;;17.60;99.90;;;;;;5030897;28;20284;-49
2022/09/11 09:51:10;;;;;;;0.40;0.40;;;17.40;99.90;;;;;;5032058;28;20293;-49
2022/09/11 09:53:41;;;;;;;0.67;0.67;;;17.40;99.90;;;;;;5032315;28;20264;-49
2022/09/11 09:56:12;;;;;;;0.70;0.47;;;17.40;99.90;;;;;;5032293;28;20706;-50
2022/09/11 09:58:48;;;;;;;0.57;0.47;;;17.40;99.90;;;;;;5022987;28;20223;-49
2022/09/11 10:01:42;;;;;;;2.20;0.40;;;17.40;99.90;;;;;;5030207;28;20212;-49
2022/09/11 10:04:13;;;;;;;1.43;0.60;;;17.50;99.90;;;;;;5025130;28;20198;-50
2022/09/11 10:06:40;;;;;;;0.60;0.47;;;17.40;99.90;;;;;;5032160;28;20313;-50
2022/09/11 10:09:18;;;;;;;0.50;0.50;;;17.50;99.90;;;;;;5028744;28;20248;-49
2022/09/11 10:11:50;;;;;;;0.50;0.50;;;17.70;99.90;;;;;;5028714;28;20260;-50
2022/09/11 10:14:21;;;;;;;1.03;0.83;;;18.00;99.90;;;;;;5030999;28;20264;-49
2022/09/11 10:16:49;;;;;;;1.10;0.80;;;18.10;99.90;;;;;;5032043;28;20218;-49
2022/09/11 10:19:36;;;;;;;1.30;0.53;;;18.30;99.90;;;;;;5031185;28;20712;-49
2022/09/11 10:22:31;;;;;;;0.60;0.60;;;18.50;99.90;;;;;;5023903;28;20210;-48
2022/09/11 10:25:01;;;;;;;0.40;0.40;;;18.40;99.90;;;;;;5007825;28;20922;-49
2022/09/11 10:27:30;;;;;;;0.50;0.50;;;18.30;99.90;;;;;;5031025;28;20222;-49
2022/09/11 10:29:59;;;;;;;1.43;0.60;;;18.20;99.90;;;;;;5027138;28;20569;-49
2022/09/11 10:32:27;;;;;;;0.53;0.53;;;18.10;99.90;;;;;;5030419;28;20202;-51
2022/09/11 10:34:55;;;;;;;0.77;0.67;;;18.00;99.90;;;;;;5028606;28;20236;-49
2022/09/11 10:37:26;;;;;;;0.70;0.53;;;17.80;99.90;;;;;;5033455;28;20635;-49
2022/09/11 10:40:00;;;;;;;0.37;0.37;;;17.60;99.90;;;;;;5027966;28;20202;-49
2022/09/11 10:42:30;;;;;;;0.50;0.40;;;17.50;99.90;;;;;;5030138;28;20259;-50
2022/09/11 10:45:07;;;;;;;1.33;0.40;;;17.50;99.90;;;;;;5029153;28;20210;-49
2022/09/11 10:47:34;;;;;;;0.30;0.30;;;17.40;99.90;;;;;;5028843;28;20246;-49
2022/09/11 10:50:21;;;;;;;0.40;0.40;;;17.30;99.90;;;;;;5029906;28;20198;-49
2022/09/11 10:52:58;;;;;;;2.17;0.50;;;17.20;99.90;;;;;;5029776;28;20191;-50
2022/09/11 10:55:29;;;;;;;1.90;0.93;;;17.20;99.90;;;;;;5036528;28;20314;-49
2022/09/11 10:58:04;;;;;;;0.40;0.40;;;17.20;99.90;;;;;;5034551;28;20322;-49
2022/09/11 11:00:34;;;;;;;0.40;0.40;;;17.30;99.90;;;;;;5030298;28;20204;-51
2022/09/11 11:03:06;;;;;;;0.87;0.47;;;17.30;99.90;;;;;;5026942;28;20214;-49
2022/09/11 11:05:41;;;;;;;0.53;0.53;;;17.30;99.90;;;;;;5027785;28;20214;-50
2022/09/11 11:08:21;;;;;;;1.17;0.40;;;17.30;99.90;;;;;;5023889;28;20288;-49
2022/09/11 11:11:06;;;;;;;0.90;0.90;;;17.40;99.90;;;;;;5027563;28;20202;-49
2022/09/11 11:13:46;;;;;;;0.60;0.40;;;17.60;99.90;;;;;;5027621;28;20198;-49
2022/09/11 11:16:22;;;;;;;0.50;0.50;;;17.90;99.90;;;;;;5034098;28;20237;-48
2022/09/11 11:19:01;;;;;;;0.77;0.70;;;18.20;99.90;;;;;;5033724;28;20206;-50
2022/09/11 11:21:44;;;;;;;2.13;0.63;;;18.60;99.90;;;;;;5034222;28;20203;-50
2022/09/11 11:24:22;;;;;;;0.50;0.50;;;18.80;99.90;;;;;;5033377;28;20312;-50
2022/09/11 11:27:16;;;;;;;1.17;0.80;;;19.00;99.90;;;;;;5029609;28;20453;-50
2022/09/11 11:30:05;;;;;;;1.30;0.60;;;19.40;99.90;;;;;;5033853;28;20218;-48
2022/09/11 11:32:53;;;;;;;0.87;0.87;;;19.60;99.90;;;;;;5033244;28;20217;-49
2022/09/11 11:35:28;;;;;;;1.60;0.70;;;19.80;99.90;;;;;;5025493;28;20203;-48
2022/09/11 11:38:03;;;;;;;1.17;0.40;;;20.10;99.90;;;;;;5029825;28;20249;-49
2022/09/11 11:40:35;;;;;;;0.90;0.87;;;20.30;99.90;;;;;;5031176;28;20206;-50
2022/09/11 11:43:06;;;;;;;1.80;0.77;;;20.60;99.90;;;;;;5025808;28;20240;-48
2022/09/11 11:45:39;;;;;;;0.50;0.50;;;20.50;99.90;;;;;;5034071;28;20203;-49
2022/09/11 11:48:14;;;;;;;0.97;0.50;;;20.60;99.90;;;;;;5030793;28;20230;-50
2022/09/11 11:50:44;;;;;;;0.70;0.30;;;20.60;99.90;;;;;;5034857;28;20206;-51
2022/09/11 11:53:18;;;;;;;2.47;0.60;;;20.50;99.90;;;;;;5030333;28;20195;-49
2022/09/11 11:55:58;;;;;;;0.30;0.30;;;20.60;99.90;;;;;;5032084;28;20199;-50
2022/09/11 11:58:37;;;;;;;1.87;1.00;;;20.50;99.90;;;;;;5027922;28;20226;-48
2022/09/11 12:01:12;;;;;;;0.50;0.50;;;20.20;99.90;;;;;;5031147;28;20202;-49
2022/09/11 12:03:46;;;;;;;0.47;0.40;;;20.30;99.90;;;;;;5029304;28;20229;-49
2022/09/11 12:06:15;;;;;;;1.00;0.50;;;20.40;99.90;;;;;;5032780;28;20729;-49
2022/09/11 12:08:44;;;;;;;1.30;0.50;;;20.20;99.90;;;;;;5030175;28;20641;-50
2022/09/11 12:11:14;;;;;;;0.63;0.60;;;20.20;99.90;;;;;;5033836;28;20203;-49
2022/09/11 12:13:43;;;;;;;1.67;0.40;;;20.10;99.90;;;;;;5027081;28;20268;-49
2022/09/11 12:16:16;;;;;;;2.20;0.40;;;20.10;99.90;;;;;;5027155;28;20211;-51
2022/09/11 12:19:06;;;;;;;1.63;0.30;;;20.10;99.90;;;;;;5030132;28;20227;-50
2022/09/11 12:21:41;;;;;;;1.43;0.50;;;20.10;99.90;;;;;;5030101;28;20202;-50
2022/09/11 12:24:16;;;;;;;2.80;0.60;;;20.20;99.90;;;;;;5031452;28;20217;-49
2022/09/11 12:26:44;;;;;;;0.57;0.47;;;20.50;99.90;;;;;;5031735;28;20624;-50
2022/09/11 12:29:51;;;;;;;0.33;0.33;;;20.60;99.90;;;;;;5032420;28;20245;-49
2022/09/11 12:32:25;;;;;;;1.40;0.67;;;20.60;99.90;;;;;;5031484;28;20194;-48
2022/09/11 12:35:19;;;;;;;1.87;0.40;;;20.70;99.90;;;;;;5030920;28;20198;-50
2022/09/11 12:37:53;;;;;;;0.60;0.40;;;20.60;99.90;;;;;;5032504;28;20703;-50
2022/09/11 12:40:31;;;;;;;0.90;0.30;;;20.70;99.90;;;;;;5032277;28;20323;-49
2022/09/11 12:43:15;;;;;;;0.30;0.30;;;20.80;99.90;;;;;;5030268;28;20267;-50
2022/09/11 12:45:46;;;;;;;0.30;0.22;;;20.70;99.90;;;;;;5029167;28;20532;-49
2022/09/11 12:48:16;;;;;;;1.43;0.33;;;20.70;99.90;;;;;;5032328;28;20229;-50
2022/09/11 12:50:52;;;;;;;0.73;0.30;;;20.80;99.90;;;;;;5030948;28;20195;-50
2022/09/11 12:53:25;;;;;;;0.20;0.20;;;20.80;99.90;;;;;;5030356;28;20206;-50
2022/09/11 12:55:59;;;;;;;2.03;0.50;;;20.70;99.90;;;;;;5031728;28;20213;-50
2022/09/11 12:58:32;;;;;;;0.30;0.30;;;20.80;99.90;;;;;;5031641;28;20218;-49
2022/09/11 13:01:23;;;;;;;0.47;0.47;;;20.80;99.90;;;;;;5024883;28;20209;-51
2022/09/11 13:03:56;;;;;;;0.50;0.50;;;20.80;99.90;;;;;;5030620;28;20324;-50
2022/09/11 13:06:37;;;;;;;2.00;0.50;;;20.90;99.90;;;;;;5033027;28;20289;-48
2022/09/11 13:09:05;;;;;;;0.90;0.47;;;21.00;99.90;;;;;;5031538;28;20207;-48
2022/09/11 13:11:37;;;;;;;0.43;0.20;;;21.00;99.90;;;;;;5031042;28;20195;-49
2022/09/11 13:14:05;;;;;;;0.33;0.33;;;21.00;99.90;;;;;;5031897;28;20261;-50
2022/09/11 13:16:34;;;;;;;0.30;0.30;;;21.00;99.90;;;;;;5030328;28;20389;-50
2022/09/11 13:19:12;;;;;;;0.30;0.30;;;21.00;99.90;;;;;;5037048;28;20205;-50
2022/09/11 13:21:41;;;;;;;0.30;0.23;;;21.10;99.90;;;;;;5021300;28;20554;-49
2022/09/11 13:24:24;;;;;;;0.83;0.30;;;21.20;99.90;;;;;;5031336;28;20234;-50
2022/09/11 13:26:54;;;;;;;0.30;0.30;;;21.20;99.90;;;;;;5028058;28;20288;-49
2022/09/11 13:29:23;;;;;;;0.20;0.20;;;21.30;99.90;;;;;;5026986;28;20293;-49
2022/09/11 13:31:51;;;;;;;1.03;0.30;;;21.30;99.90;;;;;;5031862;28;20207;-49
2022/09/11 13:34:21;;;;;;;0.63;0.57;;;21.40;99.90;;;;;;5031693;28;20567;-50